Time;durP1;ratioP1;P1;durP2;ratioP2;P2;SDS_P1;SDS_P2;PMS_P1;PMS_P2;Temp;Humidity;BMP_temperature;BMP_pressure;BME280_temperature;BME280_humidity;BME280_pressure;Samples;Min_cycle;Max_cycle;Signal;HPM_P1;HPM_P2
2023/12/06 00:01:08;;;;;;;52.58;20.58;;;;;;;5.85;78.59;99673.53;3159534;28;19966;-74
2023/12/06 00:02:39;;;;;;;54.75;21.90;;;;;;;5.89;78.70;99671.72;3165401;28;20116;-75
2023/12/06 00:04:11;;;;;;;57.53;23.35;;;;;;;5.90;78.65;99671.66;3155256;28;20142;-75
2023/12/06 00:05:41;;;;;;;55.35;21.98;;;;;;;5.82;78.71;99652.94;3152494;28;20463;-75
2023/12/06 00:07:13;;;;;;;58.17;22.42;;;;;;;5.92;78.73;99671.66;3152825;28;20059;-71
2023/12/06 00:08:45;;;;;;;59.28;21.83;;;;;;;5.94;78.59;99659.53;3152943;28;20513;-72
2023/12/06 00:10:17;;;;;;;53.90;21.02;;;;;;;5.90;78.57;99647.56;3155892;28;20056;-71
2023/12/06 00:11:48;;;;;;;55.60;21.40;;;;;;;5.95;78.33;99650.91;3152285;28;20051;-71
2023/12/06 00:13:21;;;;;;;50.13;22.13;;;;;;;5.95;78.47;99652.66;3152233;28;20556;-73
2023/12/06 00:14:51;;;;;;;52.78;20.52;;;;;;;5.90;78.63;99660.50;3159119;28;20051;-74
2023/12/06 00:16:23;;;;;;;54.08;20.38;;;;;;;5.90;78.69;99658.75;3154264;28;20113;-73
2023/12/06 00:17:54;;;;;;;61.45;22.33;;;;;;;5.91;78.53;99650.09;3152668;28;20074;-74
2023/12/06 00:19:26;;;;;;;60.15;22.58;;;;;;;5.74;78.78;99623.91;3152626;28;20052;-74
2023/12/06 00:20:58;;;;;;;56.15;24.40;;;;;;;5.89;78.76;99654.47;3152723;28;20172;-74
2023/12/06 00:22:29;;;;;;;58.05;24.55;;;;;;;5.85;78.69;99654.59;3157306;28;20043;-74
2023/12/06 00:24:01;;;;;;;65.30;27.60;;;;;;;5.85;78.99;99649.44;3159353;28;20562;-74
2023/12/06 00:25:32;;;;;;;60.45;25.85;;;;;;;5.81;79.11;99651.25;3152094;28;20117;-74
2023/12/06 00:27:04;;;;;;;60.00;25.75;;;;;;;5.77;79.35;99644.50;3160942;28;20167;-72
2023/12/06 00:28:36;;;;;;;58.03;23.80;;;;;;;5.83;79.39;99651.22;3165160;28;20055;-75
2023/12/06 00:30:09;;;;;;;65.20;26.20;;;;;;;5.78;79.47;99648.75;3156010;28;20112;-75
2023/12/06 00:31:40;;;;;;;68.32;26.65;;;;;;;5.69;79.69;99647.28;3153144;28;20150;-74
2023/12/06 00:33:36;;;;;;;64.97;26.77;;;;;;;5.70;79.68;99655.88;3152606;28;20052;-71
2023/12/06 00:35:08;;;;;;;69.45;27.08;;;;;;;5.62;80.05;99650.06;3148211;28;20055;-75
2023/12/06 00:36:41;;;;;;;64.20;27.00;;;;;;;5.63;80.20;99651.78;3157610;28;20078;-75
2023/12/06 00:38:13;;;;;;;60.43;25.63;;;;;;;5.53;80.44;99640.84;3157879;28;20048;-75
2023/12/06 00:39:44;;;;;;;65.65;25.45;;;;;;;5.60;80.56;99651.88;3157565;28;20048;-74
2023/12/06 00:41:15;;;;;;;68.43;26.50;;;;;;;5.59;80.73;99652.72;3157480;28;20529;-73
2023/12/06 00:42:47;;;;;;;64.13;26.50;;;;;;;5.56;80.73;99640.78;3157195;28;20051;-74
2023/12/06 00:44:19;;;;;;;75.28;27.42;;;;;;;5.55;80.84;99641.63;3157231;28;20544;-74
2023/12/06 00:45:51;;;;;;;70.15;27.52;;;;;;;5.51;80.97;99647.78;3162563;28;20102;-72
2023/12/06 00:47:22;;;;;;;62.53;25.90;;;;;;;5.44;81.30;99643.66;3157518;28;20113;-73
2023/12/06 00:48:54;;;;;;;60.17;25.98;;;;;;;5.38;81.61;99638.66;3163639;28;20545;-74
2023/12/06 00:50:24;;;;;;;69.05;25.90;;;;;;;5.35;81.70;99634.41;3164191;28;20048;-73
2023/12/06 00:51:57;;;;;;;66.95;26.80;;;;;;;5.27;81.84;99625.22;3160067;28;20051;-75
2023/12/06 00:53:28;;;;;;;74.32;31.35;;;;;;;5.30;81.86;99631.13;3165665;28;20052;-75
2023/12/06 00:55:00;;;;;;;68.20;27.27;;;;;;;5.18;82.33;99608.22;3157319;28;20474;-74
2023/12/06 00:56:31;;;;;;;70.70;26.10;;;;;;;5.34;82.34;99637.06;3159858;28;20048;-75
2023/12/06 00:58:02;;;;;;;63.00;25.80;;;;;;;5.30;82.32;99625.97;3168168;28;20039;-75
2023/12/06 00:59:34;;;;;;;72.00;25.77;;;;;;;5.37;82.22;99629.22;3160718;28;20070;-75
2023/12/06 01:01:06;;;;;;;69.93;27.38;;;;;;;5.39;82.29;99627.47;3163519;28;20051;-74
2023/12/06 01:02:38;;;;;;;69.28;26.27;;;;;;;4.57;82.38;99499.69;3157143;28;20048;-75
2023/12/06 01:04:10;;;;;;;60.97;27.23;;;;;;;5.20;82.44;99602.09;3157185;28;20055;-74
2023/12/06 01:05:41;;;;;;;71.40;26.48;;;;;;;5.33;82.58;99632.78;3157123;28;20051;-74
2023/12/06 01:07:12;;;;;;;63.28;25.60;;;;;;;5.18;82.53;99601.31;3168544;28;20047;-75
2023/12/06 01:08:44;;;;;;;61.25;26.35;;;;;;;5.33;82.65;99623.31;3160212;28;20055;-72
2023/12/06 01:10:16;;;;;;;64.90;25.63;;;;;;;5.29;82.75;99619.09;3167997;28;20047;-74
2023/12/06 01:11:47;;;;;;;68.63;27.27;;;;;;;5.35;82.78;99623.25;3160579;28;20444;-74
2023/12/06 01:13:19;;;;;;;60.72;26.15;;;;;;;5.38;82.90;99621.47;3164787;28;20089;-74
2023/12/06 01:14:53;;;;;;;59.35;25.83;;;;;;;5.40;82.79;99621.41;3158186;28;20067;-75
2023/12/06 01:16:23;;;;;;;71.20;25.80;;;;;;;5.37;82.79;99611.16;3156700;28;20509;-73
2023/12/06 01:17:55;;;;;;;63.08;25.92;;;;;;;5.37;82.96;99606.00;3163082;28;20052;-72
2023/12/06 01:19:27;;;;;;;65.47;27.00;;;;;;;5.38;82.71;99603.38;3159881;28;20048;-73
2023/12/06 01:20:57;;;;;;;68.03;26.90;;;;;;;5.42;82.82;99607.56;3157406;28;20539;-73
2023/12/06 01:22:29;;;;;;;65.43;26.00;;;;;;;5.42;82.83;99606.72;3164856;28;20051;-74
2023/12/06 01:24:00;;;;;;;67.72;26.13;;;;;;;5.43;82.87;99604.09;3163932;28;20067;-75
2023/12/06 01:25:33;;;;;;;59.42;25.23;;;;;;;5.46;82.86;99600.56;3156123;28;20071;-74
2023/12/06 01:27:05;;;;;;;61.45;25.73;;;;;;;5.45;82.95;99599.72;3165166;28;20048;-74
2023/12/06 01:28:36;;;;;;;69.22;26.20;;;;;;;5.43;82.97;99596.34;3164755;28;20498;-73
2023/12/06 01:30:10;;;;;;;60.90;26.15;;;;;;;5.45;83.00;99604.06;3156468;28;20139;-72
2023/12/06 01:31:41;;;;;;;54.70;25.50;;;;;;;5.43;83.03;99593.75;3157682;28;20048;-73
2023/12/06 01:33:13;;;;;;;66.63;27.10;;;;;;;5.45;82.91;99596.31;3156628;28;20128;-73
2023/12/06 01:34:44;;;;;;;64.07;26.10;;;;;;;5.46;83.05;99598.00;3156946;28;20044;-74
2023/12/06 01:36:15;;;;;;;64.35;26.88;;;;;;;5.45;83.17;99597.16;3166978;28;20051;-74
2023/12/06 01:37:46;;;;;;;57.88;24.90;;;;;;;5.46;83.18;99590.25;3169035;28;20245;-75
2023/12/06 01:39:18;;;;;;;70.28;26.65;;;;;;;5.42;82.87;99584.31;3160745;28;20145;-74
2023/12/06 01:40:49;;;;;;;63.85;25.73;;;;;;;5.45;82.87;99588.56;3156448;28;20044;-74
2023/12/06 01:42:20;;;;;;;63.97;25.88;;;;;;;5.44;82.95;99587.72;3156695;28;20391;-74
2023/12/06 01:43:51;;;;;;;62.85;26.23;;;;;;;5.45;82.99;99591.97;3159703;28;20052;-71
2023/12/06 01:45:24;;;;;;;75.47;27.67;;;;;;;5.46;82.81;99585.91;3162274;28;20046;-71
2023/12/06 01:46:55;;;;;;;59.53;26.52;;;;;;;5.44;82.86;99586.84;3164407;28;20529;-72
2023/12/06 01:48:27;;;;;;;70.05;27.80;;;;;;;5.44;82.85;99576.50;3156677;28;20044;-73
2023/12/06 01:50:01;;;;;;;62.72;25.63;;;;;;;4.75;83.03;99464.84;3156720;28;20052;-73
2023/12/06 01:51:32;;;;;;;;;;;;;;;5.25;83.21;99568.44;3159441;28;20044;-73
2023/12/06 01:53:04;;;;;;;65.68;25.73;;;;;;;5.29;83.75;99566.59;3160305;28;19931;-71
2023/12/06 01:54:36;;;;;;;71.93;27.38;;;;;;;5.32;83.67;99567.38;3167354;28;20169;-74
2023/12/06 01:56:08;;;;;;;76.30;30.13;;;;;;;5.33;83.60;99561.34;3156273;28;20094;-71
2023/12/06 01:57:41;;;;;;;70.35;28.30;;;;;;;5.31;83.54;99546.78;3160564;28;20066;-73
2023/12/06 01:59:13;;;;;;;71.55;28.63;;;;;;;5.37;83.50;99555.19;3159678;28;20108;-73
2023/12/06 02:00:46;;;;;;;72.28;29.33;;;;;;;5.39;83.67;99552.56;3167943;28;20051;-74
2023/12/06 02:02:17;;;;;;;75.15;31.42;;;;;;;5.39;83.45;99553.41;3157260;28;20457;-75
2023/12/06 02:03:49;;;;;;;77.90;32.58;;;;;;;5.38;83.47;99546.56;3167900;28;20054;-75
2023/12/06 02:05:20;;;;;;;79.53;32.50;;;;;;;5.42;83.49;99539.56;3161352;28;20052;-72
2023/12/06 02:06:52;;;;;;;74.53;31.00;;;;;;;5.41;83.45;99527.53;3169104;28;20153;-72
2023/12/06 02:08:23;;;;;;;74.57;31.02;;;;;;;5.41;83.42;99531.00;3159912;28;20078;-72
2023/12/06 02:09:55;;;;;;;77.55;27.73;;;;;;;5.46;83.37;99529.09;3158616;28;20512;-73
2023/12/06 02:11:26;;;;;;;79.22;30.70;;;;;;;5.47;83.61;99533.41;3156349;28;20378;-74
2023/12/06 02:12:58;;;;;;;74.60;28.30;;;;;;;5.46;83.47;99529.09;3160311;28;20055;-74
2023/12/06 02:14:33;;;;;;;76.50;28.67;;;;;;;5.46;83.51;99528.25;3156344;28;20497;-75
2023/12/06 02:16:08;;;;;;;82.75;28.63;;;;;;;5.45;83.51;99532.59;3156641;28;20055;-75
2023/12/06 02:17:39;;;;;;;82.57;29.63;;;;;;;5.41;83.64;99530.13;3156429;28;20051;-74
2023/12/06 02:19:18;;;;;;;93.28;33.08;;;;;;;5.44;83.52;99537.78;3156818;28;20051;-74
2023/12/06 02:20:49;;;;;;;82.10;30.77;;;;;;;5.40;83.71;99533.59;3156451;28;20055;-73
2023/12/06 02:22:22;;;;;;;78.75;30.88;;;;;;;5.10;83.80;99487.09;3161526;28;20047;-73
2023/12/06 02:23:55;;;;;;;;;;;;;;;5.30;83.70;99537.34;3164074;28;20074;-72
2023/12/06 02:25:28;;;;;;;77.57;30.08;;;;;;;5.33;84.09;99532.94;3156802;28;20073;-71
2023/12/06 02:26:59;;;;;;;93.97;33.58;;;;;;;5.35;83.85;99536.28;3166086;28;20055;-71
2023/12/06 02:28:31;;;;;;;88.55;32.63;;;;;;;5.39;83.79;99539.66;3156602;28;20055;-73
2023/12/06 02:30:02;;;;;;;84.30;32.30;;;;;;;5.41;83.83;99537.88;3155847;28;20626;-74
2023/12/06 02:31:34;;;;;;;82.60;32.20;;;;;;;5.42;83.64;99537.84;3167307;28;20062;-74
2023/12/06 02:33:04;;;;;;;80.30;31.60;;;;;;;5.43;83.70;99536.09;3169235;28;20078;-74
2023/12/06 02:34:38;;;;;;;82.28;31.80;;;;;;;5.44;83.78;99540.34;3169209;28;20048;-74
2023/12/06 02:36:12;;;;;;;81.20;30.73;;;;;;;5.43;83.61;99536.94;3160383;28;20535;-74
2023/12/06 02:37:47;;;;;;;74.53;29.83;;;;;;;5.46;83.82;99538.59;3159124;28;20059;-74
2023/12/06 02:39:18;;;;;;;81.97;29.85;;;;;;;5.46;83.67;99536.84;3158864;28;20056;-74
2023/12/06 02:40:53;;;;;;;75.50;29.88;;;;;;;5.49;83.56;99538.50;3158604;28;20461;-74
2023/12/06 02:42:24;;;;;;;72.75;29.10;;;;;;;5.49;83.56;99533.34;3158554;28;20052;-73
2023/12/06 02:43:56;;;;;;;75.85;29.13;;;;;;;5.50;83.60;99535.00;3159555;28;20555;-75
2023/12/06 02:45:27;;;;;;;85.45;30.15;;;;;;;5.50;83.66;99526.44;3163822;28;20063;-74
2023/12/06 02:47:00;;;;;;;81.40;28.73;;;;;;;5.39;83.69;99500.94;3159490;28;20184;-74
2023/12/06 02:48:31;;;;;;;89.80;29.90;;;;;;;5.41;83.69;99506.88;3158567;28;20437;-74
2023/12/06 02:50:02;;;;;;;89.13;31.17;;;;;;;5.51;83.73;99522.97;3158427;28;20063;-74
2023/12/06 02:51:33;;;;;;;86.07;30.58;;;;;;;5.55;83.69;99527.16;3158536;28;20512;-73
2023/12/06 02:53:05;;;;;;;87.13;32.08;;;;;;;5.52;83.60;99528.06;3159649;28;20044;-73
2023/12/06 02:54:36;;;;;;;89.97;31.38;;;;;;;5.52;83.92;99527.25;3166698;28;20453;-72
2023/12/06 02:56:10;;;;;;;102.25;33.00;;;;;;;5.52;83.75;99528.06;3161419;28;20047;-73
2023/12/06 02:57:40;;;;;;;89.18;31.13;;;;;;;5.52;83.76;99528.06;3170855;28;20443;-73
2023/12/06 02:59:12;;;;;;;83.53;31.23;;;;;;;5.53;83.90;99521.16;3171393;28;20051;-72
2023/12/06 03:00:43;;;;;;;79.45;31.58;;;;;;;5.53;83.85;99516.88;3164148;28;20047;-72
2023/12/06 03:02:15;;;;;;;82.50;30.73;;;;;;;5.53;83.88;99523.75;3161698;28;20535;-72
2023/12/06 03:03:45;;;;;;;90.47;31.77;;;;;;;5.50;83.93;99514.34;3158540;28;20051;-72
2023/12/06 03:05:17;;;;;;;91.80;31.98;;;;;;;5.50;84.10;99513.50;3164212;28;20142;-72
2023/12/06 03:06:48;;;;;;;82.85;29.85;;;;;;;5.52;83.72;99517.75;3158396;28;20048;-72
2023/12/06 03:08:20;;;;;;;87.90;32.97;;;;;;;5.49;83.95;99504.91;3158548;28;20051;-73
2023/12/06 03:09:51;;;;;;;87.75;30.38;;;;;;;5.51;84.00;99515.22;3163138;28;20058;-74
2023/12/06 03:11:24;;;;;;;88.13;30.45;;;;;;;5.41;83.98;99499.13;3162974;28;20043;-73
2023/12/06 03:12:54;;;;;;;91.05;31.73;;;;;;;5.53;84.26;99510.84;3167193;28;20385;-72
2023/12/06 03:14:26;;;;;;;81.38;30.85;;;;;;;5.57;83.81;99518.47;3161686;28;20043;-73
2023/12/06 03:15:57;;;;;;;86.15;32.63;;;;;;;5.58;83.92;99521.91;3165726;28;20039;-73
2023/12/06 03:17:29;;;;;;;87.80;32.53;;;;;;;5.61;83.76;99520.06;3158332;28;20413;-72
2023/12/06 03:19:01;;;;;;;89.72;31.25;;;;;;;5.59;83.79;99513.25;3158509;28;20446;-72
2023/12/06 03:20:33;;;;;;;92.00;31.52;;;;;;;5.63;83.85;99510.53;3158675;28;20055;-72
2023/12/06 03:22:04;;;;;;;91.57;31.90;;;;;;;5.58;83.62;99502.06;3158181;28;20129;-72
2023/12/06 03:23:35;;;;;;;88.05;32.05;;;;;;;5.63;83.67;99507.13;3160728;28;20066;-73
2023/12/06 03:25:07;;;;;;;80.25;31.60;;;;;;;5.68;83.52;99516.41;3169227;28;20078;-72
2023/12/06 03:26:40;;;;;;;83.57;32.80;;;;;;;5.65;83.84;99507.91;3160120;28;20141;-71
2023/12/06 03:28:11;;;;;;;90.65;32.78;;;;;;;5.58;83.63;99493.47;3168197;28;20062;-72
2023/12/06 03:29:42;;;;;;;88.47;32.85;;;;;;;5.67;83.79;99512.13;3170442;28;20055;-72
2023/12/06 03:31:13;;;;;;;87.82;32.60;;;;;;;5.66;83.57;99507.88;3170887;28;20052;-71
2023/12/06 03:32:45;;;;;;;88.28;30.95;;;;;;;5.70;83.71;99516.34;3163746;28;20051;-71
2023/12/06 03:34:16;;;;;;;90.18;33.60;;;;;;;5.68;83.43;99515.59;3158254;28;20119;-71
2023/12/06 03:35:48;;;;;;;90.50;31.88;;;;;;;5.70;83.53;99508.59;3158252;28;20048;-70
2023/12/06 03:37:19;;;;;;;86.05;32.35;;;;;;;5.67;83.51;99512.13;3159012;28;20513;-70
2023/12/06 03:38:50;;;;;;;96.30;34.55;;;;;;;5.66;83.50;99514.78;3158137;28;20040;-72
2023/12/06 03:40:21;;;;;;;83.60;32.47;;;;;;;5.57;83.50;99495.22;3161888;28;20440;-72
2023/12/06 03:41:54;;;;;;;94.45;32.17;;;;;;;5.66;83.61;99513.03;3157969;28;20044;-72
2023/12/06 03:43:26;;;;;;;91.15;31.55;;;;;;;5.66;83.85;99515.63;3158470;28;20066;-71
2023/12/06 03:44:58;;;;;;;91.38;32.55;;;;;;;5.67;83.68;99519.03;3158695;28;20055;-72
2023/12/06 03:46:28;;;;;;;97.32;34.00;;;;;;;5.67;83.89;99517.28;3170773;28;20047;-73
2023/12/06 03:48:01;;;;;;;95.88;32.08;;;;;;;5.53;83.84;99490.19;3170779;28;20058;-70
2023/12/06 03:49:31;;;;;;;92.28;32.67;;;;;;;5.34;83.78;99453.72;3161911;28;20516;-74
2023/12/06 03:51:03;;;;;;;98.53;35.90;;;;;;;5.67;83.81;99509.53;3162396;28;20044;-71
2023/12/06 03:52:34;;;;;;;94.35;33.78;;;;;;;5.65;83.67;99502.75;3157772;28;20055;-69
2023/12/06 03:54:06;;;;;;;98.22;34.72;;;;;;;5.67;84.00;99509.53;3162700;28;20667;-71
2023/12/06 03:55:37;;;;;;;89.93;32.83;;;;;;;5.63;84.02;99500.19;3162495;28;20529;-71
2023/12/06 03:57:10;;;;;;;96.32;34.78;;;;;;;5.66;83.80;99504.44;3157995;28;20060;-71
2023/12/06 03:58:41;;;;;;;95.90;34.35;;;;;;;5.66;84.05;99505.28;3157791;28;20161;-71
2023/12/06 04:00:14;;;;;;;97.70;32.05;;;;;;;5.66;84.09;99507.88;3162417;28;20056;-72
2023/12/06 04:01:45;;;;;;;95.78;32.65;;;;;;;5.65;84.27;99511.34;3168292;28;20079;-72
2023/12/06 04:03:17;;;;;;;110.90;33.83;;;;;;;5.54;84.14;99486.72;3158001;28;20047;-72
2023/12/06 04:04:48;;;;;;;97.97;30.88;;;;;;;5.62;84.37;99503.69;3157912;28;20048;-70
2023/12/06 04:06:19;;;;;;;99.00;32.30;;;;;;;5.59;84.42;99506.38;3168581;28;20074;-72
2023/12/06 04:07:51;;;;;;;97.38;32.50;;;;;;;5.58;84.73;99502.06;3163463;28;20059;-72
2023/12/06 04:09:22;;;;;;;113.20;35.65;;;;;;;5.53;84.52;99498.81;3162065;28;20055;-72
2023/12/06 04:10:54;;;;;;;102.20;32.65;;;;;;;5.43;84.97;99481.88;3157359;28;20052;-72
2023/12/06 04:12:26;;;;;;;111.35;35.90;;;;;;;5.56;84.70;99503.00;3159073;28;20048;-70
2023/12/06 04:13:58;;;;;;;111.57;35.47;;;;;;;5.51;84.78;99491.97;3157345;28;20044;-70
2023/12/06 04:15:29;;;;;;;94.20;34.08;;;;;;;5.56;85.11;99501.28;3157917;28;20105;-72
2023/12/06 04:17:01;;;;;;;107.93;33.90;;;;;;;5.57;85.03;99502.13;3157893;28;20064;-70
2023/12/06 04:18:31;;;;;;;102.47;34.60;;;;;;;5.53;85.04;99496.22;3157507;28;20092;-72
2023/12/06 04:20:05;;;;;;;101.00;34.90;;;;;;;5.54;85.18;99499.63;3157710;28;20051;-72
2023/12/06 04:21:36;;;;;;;97.45;33.67;;;;;;;5.51;85.32;99499.72;3157362;28;20056;-73
2023/12/06 04:23:08;;;;;;;98.43;33.85;;;;;;;5.47;85.24;99498.94;3162919;28;20602;-73
2023/12/06 04:24:38;;;;;;;107.65;34.03;;;;;;;5.45;85.53;99501.59;3159443;28;20052;-73
2023/12/06 04:26:10;;;;;;;105.65;34.10;;;;;;;5.45;85.56;99493.00;3160009;28;20367;-73
2023/12/06 04:27:42;;;;;;;106.03;36.55;;;;;;;5.43;85.48;99490.44;3157652;28;20048;-73
2023/12/06 04:29:14;;;;;;;96.90;33.20;;;;;;;5.45;85.56;99491.25;3162013;28;20051;-75
2023/12/06 04:30:45;;;;;;;104.50;34.90;;;;;;;5.46;85.92;99487.78;3166248;28;20150;-75
2023/12/06 04:32:16;;;;;;;93.32;32.67;;;;;;;5.44;85.83;99479.25;3157584;28;20060;-75
2023/12/06 04:33:47;;;;;;;109.45;33.55;;;;;;;5.47;85.78;99486.91;3159269;28;20048;-74
2023/12/06 04:35:19;;;;;;;101.53;32.92;;;;;;;5.46;85.76;99486.94;3170344;28;20488;-75
2023/12/06 04:36:51;;;;;;;103.18;34.45;;;;;;;5.48;85.85;99487.75;3169301;28;20048;-75
2023/12/06 04:38:22;;;;;;;103.65;34.78;;;;;;;5.34;85.77;99461.47;3161281;28;20165;-73
2023/12/06 04:39:54;;;;;;;100.15;34.80;;;;;;;5.48;85.60;99487.75;3157446;28;20048;-73
2023/12/06 04:41:24;;;;;;;101.05;33.85;;;;;;;5.47;85.85;99483.44;3157138;28;20063;-76
2023/12/06 04:42:57;;;;;;;99.25;34.30;;;;;;;5.45;85.85;99480.94;3157284;28;20052;-76
2023/12/06 04:44:28;;;;;;;118.95;35.83;;;;;;;5.43;85.97;99479.28;3167770;28;20461;-76
2023/12/06 04:46:00;;;;;;;98.75;33.88;;;;;;;5.44;85.89;99480.97;3163676;28;20043;-76
2023/12/06 04:47:31;;;;;;;104.10;34.33;;;;;;;5.45;86.05;99480.09;3169646;28;20126;-76
2023/12/06 04:49:02;;;;;;;104.38;34.50;;;;;;;5.40;85.97;99469.88;3170112;28;20048;-75
2023/12/06 04:50:33;;;;;;;105.18;33.97;;;;;;;5.44;85.85;99479.25;3162691;28;20052;-75
2023/12/06 04:52:06;;;;;;;102.75;33.53;;;;;;;5.46;85.81;99476.59;3157182;28;20048;-75
2023/12/06 04:53:36;;;;;;;91.38;32.60;;;;;;;5.43;85.87;99477.53;3162204;28;20671;-75
2023/12/06 04:55:09;;;;;;;99.07;33.55;;;;;;;5.43;85.95;99474.97;3165829;28;20056;-75
2023/12/06 04:56:40;;;;;;;124.90;38.00;;;;;;;5.43;86.10;99479.28;3161463;28;20071;-73
2023/12/06 04:58:13;;;;;;;114.40;35.78;;;;;;;5.44;86.01;99478.38;3169547;28;20146;-74
2023/12/06 04:59:44;;;;;;;;;;;;;;;5.30;86.07;99477.97;3166646;28;20481;-73
2023/12/06 05:01:16;;;;;;;107.18;33.53;;;;;;;5.34;86.53;99482.13;3165142;28;19920;-73
2023/12/06 05:02:47;;;;;;;97.55;33.13;;;;;;;5.34;86.53;99476.97;3169689;28;20044;-74
2023/12/06 05:04:19;;;;;;;98.60;31.73;;;;;;;5.37;86.41;99484.63;3159631;28;20675;-75
2023/12/06 05:05:50;;;;;;;100.05;30.95;;;;;;;5.36;86.43;99477.78;3157193;28;20063;-75
2023/12/06 05:07:22;;;;;;;105.22;31.98;;;;;;;5.35;86.58;99479.50;3157351;28;20059;-74
2023/12/06 05:08:53;;;;;;;101.88;31.83;;;;;;;4.58;86.60;99346.66;3162249;28;20839;-71
2023/12/06 05:10:24;;;;;;;92.25;32.83;;;;;;;5.37;86.63;99480.31;3157164;28;20498;-71
2023/12/06 05:11:55;;;;;;;105.40;34.83;;;;;;;5.39;86.65;99480.28;3169794;28;20059;-74
2023/12/06 05:13:28;;;;;;;94.93;32.97;;;;;;;5.40;86.83;99474.22;3169190;28;20047;-73
2023/12/06 05:14:59;;;;;;;107.32;35.17;;;;;;;5.32;86.67;99463.25;3163378;28;20508;-73
2023/12/06 05:16:31;;;;;;;109.35;33.47;;;;;;;5.35;86.88;99473.47;3163867;28;20058;-73
2023/12/06 05:18:02;;;;;;;109.60;34.35;;;;;;;5.25;86.80;99454.84;3161127;28;20052;-71
2023/12/06 05:19:33;;;;;;;123.68;40.67;;;;;;;5.40;86.88;99476.78;3158444;28;20052;-70
2023/12/06 05:21:04;;;;;;;262.85;95.65;;;;;;;5.41;87.14;99476.75;3165835;28;20509;-72
2023/12/06 05:22:36;;;;;;;141.25;50.58;;;;;;;5.33;87.10;99455.47;3168506;28;20178;-75
2023/12/06 05:24:07;;;;;;;115.03;35.95;;;;;;;5.46;86.96;99479.19;3162720;28;20055;-76
2023/12/06 05:25:39;;;;;;;114.88;36.15;;;;;;;5.44;86.82;99468.91;3164387;28;20436;-74
2023/12/06 05:27:10;;;;;;;106.22;36.33;;;;;;;5.46;87.12;99474.03;3156671;28;20074;-72
2023/12/06 05:28:43;;;;;;;123.28;39.15;;;;;;;5.42;86.91;99467.28;3169239;28;20056;-70
2023/12/06 05:30:14;;;;;;;149.98;50.95;;;;;;;5.48;86.83;99473.09;3158311;28;20060;-71
2023/12/06 05:31:46;;;;;;;157.95;53.03;;;;;;;5.56;87.05;99482.34;3157365;28;20051;-71
2023/12/06 05:33:17;;;;;;;232.88;84.65;;;;;;;5.58;87.08;99484.00;3167022;28;20043;-64
2023/12/06 05:34:48;;;;;;;132.95;42.05;;;;;;;5.62;86.82;99476.97;3160161;28;20437;-71
2023/12/06 05:36:19;;;;;;;99.78;35.50;;;;;;;5.61;86.82;99476.16;3157250;28;20154;-67
2023/12/06 05:37:51;;;;;;;116.10;37.03;;;;;;;5.63;86.67;99478.69;3166196;28;20052;-70
2023/12/06 05:39:22;;;;;;;111.57;35.95;;;;;;;5.63;86.57;99474.38;3162426;28;20055;-68
2023/12/06 05:40:55;;;;;;;107.53;34.85;;;;;;;5.65;86.45;99471.75;3156439;28;20452;-67
2023/12/06 05:42:27;;;;;;;114.20;35.65;;;;;;;5.62;86.48;99477.84;3161042;28;20043;-65
2023/12/06 05:43:59;;;;;;;113.63;35.35;;;;;;;5.65;86.48;99477.75;3160577;28;20496;-64
2023/12/06 05:45:31;;;;;;;100.70;36.15;;;;;;;5.63;86.31;99473.53;3162103;28;20056;-64
2023/12/06 05:47:02;;;;;;;93.00;32.33;;;;;;;5.64;86.37;99476.06;3168662;28;20051;-65
2023/12/06 05:48:34;;;;;;;100.53;33.47;;;;;;;5.64;86.37;99476.06;3164129;28;20055;-65
2023/12/06 05:50:06;;;;;;;99.55;31.48;;;;;;;5.64;86.42;99470.88;3160174;28;20123;-67
2023/12/06 05:51:38;;;;;;;255.02;90.88;;;;;;;5.63;86.72;99479.53;3158970;28;20048;-66
2023/12/06 05:53:09;;;;;;;172.38;58.28;;;;;;;5.64;86.50;99481.22;3158628;28;20050;-67
2023/12/06 05:54:41;;;;;;;122.57;42.40;;;;;;;5.65;86.56;99476.94;3158813;28;20063;-67
2023/12/06 05:56:12;;;;;;;134.98;36.97;;;;;;;5.64;86.76;99478.63;3161812;28;20055;-67
2023/12/06 05:57:44;;;;;;;96.65;34.20;;;;;;;5.65;86.62;99489.84;3161050;28;20500;-67
2023/12/06 05:59:52;;;;;;;102.70;33.65;;;;;;;5.63;86.90;99487.28;3170081;28;20066;-67
2023/12/06 06:01:23;;;;;;;102.22;34.78;;;;;;;5.60;87.00;99484.78;3157464;28;20444;-68
2023/12/06 06:02:57;;;;;;;106.53;33.75;;;;;;;5.62;86.87;99484.72;3156448;28;20210;-67
2023/12/06 06:04:28;;;;;;;102.63;31.77;;;;;;;5.62;86.62;99477.84;3163301;28;20510;-67
2023/12/06 06:06:05;;;;;;;87.32;30.10;;;;;;;5.64;86.56;99477.78;3168986;28;20044;-66
2023/12/06 06:07:36;;;;;;;96.53;30.05;;;;;;;5.62;86.60;99483.03;3156555;28;20076;-66
2023/12/06 06:09:09;;;;;;;90.72;29.65;;;;;;;5.63;86.84;99484.69;3160636;28;20047;-66
2023/12/06 06:10:39;;;;;;;96.65;28.98;;;;;;;5.62;86.80;99484.72;3164821;28;20483;-65
2023/12/06 06:12:11;;;;;;;87.78;28.55;;;;;;;5.59;86.92;99488.28;3157652;28;20136;-65
2023/12/06 06:13:42;;;;;;;93.20;30.20;;;;;;;5.59;87.35;99487.41;3161611;28;20446;-63
2023/12/06 06:15:16;;;;;;;91.03;29.05;;;;;;;5.61;87.46;99490.81;3169567;28;20146;-65
2023/12/06 06:16:46;;;;;;;99.97;29.73;;;;;;;5.61;87.47;99491.66;3158868;28;20428;-64
2023/12/06 06:18:18;;;;;;;94.03;30.25;;;;;;;5.63;87.33;99479.53;3158421;28;20158;-65
2023/12/06 06:19:49;;;;;;;96.85;31.80;;;;;;;5.64;87.21;99496.72;3158984;28;20056;-64
2023/12/06 06:21:21;;;;;;;90.68;29.67;;;;;;;5.65;87.47;99490.69;3167970;28;20058;-64
2023/12/06 06:22:52;;;;;;;88.00;28.25;;;;;;;5.67;87.12;99491.47;3166239;28;20044;-64
2023/12/06 06:24:24;;;;;;;84.13;28.33;;;;;;;5.67;87.15;99494.03;3161337;28;20048;-65
2023/12/06 06:25:55;;;;;;;83.80;28.90;;;;;;;5.67;87.20;99491.47;3163464;28;20054;-65
2023/12/06 06:27:26;;;;;;;81.28;27.90;;;;;;;5.67;87.12;99483.72;3158979;28;20109;-63
2023/12/06 06:28:58;;;;;;;87.40;30.50;;;;;;;5.70;87.34;99487.94;3167705;28;20130;-63
2023/12/06 06:30:31;;;;;;;85.80;28.08;;;;;;;5.71;87.33;99492.25;3171445;28;20134;-64
2023/12/06 06:32:03;;;;;;;93.65;29.15;;;;;;;5.70;87.05;99486.19;3171416;28;20054;-63
2023/12/06 06:33:34;;;;;;;80.30;28.33;;;;;;;5.70;87.33;99485.34;3164070;28;20044;-62
2023/12/06 06:35:07;;;;;;;95.18;30.45;;;;;;;5.70;87.29;99481.03;3158715;28;20139;-65
2023/12/06 06:36:38;;;;;;;92.90;29.60;;;;;;;5.63;87.07;99483.88;3161390;28;20563;-65
2023/12/06 06:38:10;;;;;;;118.68;34.88;;;;;;;5.70;86.98;99481.03;3163188;28;20147;-67
2023/12/06 06:39:40;;;;;;;112.82;35.63;;;;;;;5.72;87.27;99478.41;3167149;28;20051;-67
2023/12/06 06:41:12;;;;;;;124.50;37.17;;;;;;;5.72;87.23;99477.56;3163310;28;20043;-68
2023/12/06 06:42:59;;;;;;;117.63;36.03;;;;;;;5.47;86.80;99432.69;3160828;28;20101;-65
2023/12/06 06:44:47;;;;;;;127.55;34.72;;;;;;;5.72;87.14;99478.41;3159832;28;20055;-66
2023/12/06 06:46:23;;;;;;;131.40;38.67;;;;;;;5.72;87.25;99477.56;3163858;28;20090;-66
2023/12/06 06:47:54;;;;;;;127.95;35.70;;;;;;;5.71;86.92;99476.72;3160414;28;20167;-68
2023/12/06 06:49:27;;;;;;;121.05;35.30;;;;;;;5.70;87.07;99473.28;3167669;28;20055;-66
2023/12/06 06:51:24;;;;;;;113.47;33.50;;;;;;;5.61;87.03;99473.56;3170720;28;20043;-73
2023/12/06 06:53:09;;;;;;;103.10;29.95;;;;;;;5.61;87.36;99472.72;3170185;28;20177;-69
2023/12/06 06:54:42;;;;;;;100.80;31.65;;;;;;;5.59;87.50;99480.53;3169696;28;20134;-70
2023/12/06 06:56:20;;;;;;;117.93;35.25;;;;;;;5.42;87.70;99438.88;3168117;28;20720;-70
2023/12/06 06:58:03;;;;;;;113.22;34.05;;;;;;;5.63;87.51;99471.78;3169852;28;20058;-68
2023/12/06 07:00:21;;;;;;;133.90;40.63;;;;;;;5.62;87.71;99467.53;3169082;28;20063;-70
2023/12/06 07:02:16;;;;;;;128.30;37.35;;;;;;;5.62;87.69;99482.16;3141997;28;20388;-69
2023/12/06 07:03:52;;;;;;;108.07;33.85;;;;;;;4.91;87.59;99367.22;3171070;28;20381;-70
2023/12/06 07:05:30;;;;;;;105.43;33.75;;;;;;;5.62;87.84;99483.03;3165857;28;20143;-69
2023/12/06 07:07:02;;;;;;;103.97;31.58;;;;;;;5.59;87.90;99487.41;3166424;28;20059;-65
2023/12/06 07:08:42;;;;;;;115.18;32.40;;;;;;;5.60;88.10;99489.13;3164395;28;20075;-67
2023/12/06 07:10:22;;;;;;;87.95;28.02;;;;;;;5.59;88.12;99483.13;3161588;28;20063;-67